createdAt,value
2023-01-23T00:01:20.232Z,102334.28
2023-01-23T00:03:22.166Z,102335.78
2023-01-23T00:05:28.076Z,102335.03
2023-01-23T00:07:30.001Z,102344.41
2023-01-23T00:09:34.023Z,102340.22
2023-01-23T00:11:38.102Z,102345.03
2023-01-23T00:13:40.310Z,102340.09
2023-01-23T00:15:44.319Z,102337.69
2023-01-23T00:17:46.223Z,102345.28
2023-01-23T00:19:48.108Z,102346.06
2023-01-23T00:21:49.997Z,102350.97
2023-01-23T00:23:57.251Z,102347.56
2023-01-23T00:26:07.605Z,102337.56
2023-01-23T00:28:09.485Z,102342.63
2023-01-23T00:30:19.903Z,102350.09
2023-01-23T00:32:22.066Z,102338.47
2023-01-23T00:34:29.887Z,102349.47
2023-01-23T00:36:40.185Z,102348.59
2023-01-23T00:38:43.312Z,102342.34
2023-01-23T00:40:47.137Z,102356.03
2023-01-23T00:42:49.308Z,102355.13
2023-01-23T00:44:53.180Z,102354.25
2023-01-23T00:46:58.789Z,102361.09
2023-01-23T00:49:07.283Z,102362.59
2023-01-23T00:51:22.681Z,102363.78
2023-01-23T00:53:31.778Z,102370.31
2023-01-23T00:55:50.099Z,102370.59
2023-01-23T00:57:52.019Z,102365.41
2023-01-23T00:59:53.929Z,102362.88
2023-01-23T01:02:03.227Z,102368.69
2023-01-23T01:04:05.329Z,102374.34
2023-01-23T01:06:11.172Z,102369.44
2023-01-23T01:08:13.267Z,102368.41
2023-01-23T01:10:17.497Z,102365.13
2023-01-23T01:12:19.596Z,102369.91
2023-01-23T01:14:30.586Z,102377.66
2023-01-23T01:16:34.558Z,102374.22
2023-01-23T01:18:38.340Z,102374.81
2023-01-23T01:20:42.517Z,102387.47
2023-01-23T01:22:44.471Z,102383.16
2023-01-23T01:24:46.604Z,102379.88
2023-01-23T01:26:50.433Z,102383.31
2023-01-23T01:28:56.489Z,102372.00
2023-01-23T01:31:07.474Z,102383.78
2023-01-23T01:33:09.540Z,102381.41
2023-01-23T01:35:12.190Z,102388.06
2023-01-23T01:37:15.034Z,102383.78
2023-01-23T01:39:20.951Z,102388.84
2023-01-23T01:41:26.052Z,102389.00
2023-01-23T01:43:28.637Z,102387.78
2023-01-23T01:46:07.803Z,102388.06
2023-01-23T01:48:13.179Z,102386.91
2023-01-23T01:50:15.245Z,102394.66
2023-01-23T01:52:21.281Z,102389.44
2023-01-23T01:54:43.851Z,102396.28
2023-01-23T01:56:52.065Z,102399.28
2023-01-23T01:59:20.280Z,102406.13
2023-01-23T02:01:24.461Z,102404.47
2023-01-23T02:03:30.884Z,102411.19
2023-01-23T02:05:47.735Z,102408.66
2023-01-23T02:08:11.144Z,102412.66
2023-01-23T02:10:14.485Z,102410.28
2023-01-23T02:12:16.400Z,102409.53
2023-01-23T02:14:26.268Z,102414.47
2023-01-23T02:16:34.108Z,102417.13
2023-01-23T02:18:39.180Z,102411.19
2023-01-23T02:20:42.289Z,102410.28
2023-01-23T02:23:18.293Z,102422.19
2023-01-23T02:26:11.673Z,102422.94
2023-01-23T02:28:17.179Z,102416.25
2023-01-23T02:30:21.547Z,102415.03
2023-01-23T02:32:29.627Z,102418.78
2023-01-23T02:34:32.455Z,102411.78
2023-01-23T02:36:35.564Z,102413.56
2023-01-23T02:38:54.825Z,102420.41
2023-01-23T02:41:21.024Z,102420.41
2023-01-23T02:43:28.404Z,102426.22
2023-01-23T02:45:41.159Z,102428.75
2023-01-23T02:47:43.020Z,102426.09
2023-01-23T02:49:45.201Z,102420.09
2023-01-23T02:51:49.659Z,102420.41
2023-01-23T02:53:51.663Z,102418.50
2023-01-23T02:55:54.065Z,102425.16
2023-01-23T02:58:18.342Z,102417.00
2023-01-23T03:00:20.918Z,102413.56
2023-01-23T03:02:28.260Z,102414.16
2023-01-23T03:04:39.919Z,102418.34
2023-01-23T03:06:46.008Z,102413.44
2023-01-23T03:08:47.943Z,102425.94
2023-01-23T03:10:53.895Z,102427.69
2023-01-23T03:13:07.439Z,102428.19
2023-01-23T03:15:11.828Z,102431.16
2023-01-23T03:17:15.040Z,102424.88
2023-01-23T03:19:18.788Z,102424.44
2023-01-23T03:21:32.900Z,102428.31
2023-01-23T03:23:44.824Z,102429.94
2023-01-23T03:25:49.320Z,102437.81
2023-01-23T03:27:54.295Z,102433.53
2023-01-23T03:30:16.278Z,102437.97
2023-01-23T03:32:18.069Z,102437.09
2023-01-23T03:34:22.425Z,102432.03
2023-01-23T03:36:37.556Z,102440.66
2023-01-23T03:39:05.018Z,102431.00
2023-01-23T03:41:27.091Z,102440.34
2023-01-23T03:43:33.363Z,102446.94
2023-01-23T03:45:45.437Z,102446.16
2023-01-23T03:47:48.399Z,102452.00
2023-01-23T03:49:53.119Z,102457.78
2023-01-23T03:51:57.044Z,102452.88
2023-01-23T03:54:11.705Z,102464.78
2023-01-23T03:56:16.861Z,102466.56
2023-01-23T03:58:25.564Z,102459.09
2023-01-23T04:00:30.571Z,102466.41
2023-01-23T04:02:34.480Z,102464.94
2023-01-23T04:04:37.383Z,102469.22
2023-01-23T04:06:49.418Z,102457.34
2023-01-23T04:08:52.385Z,102453.00
2023-01-23T04:11:09.217Z,102455.53
2023-01-23T04:13:15.257Z,102459.59
2023-01-23T04:15:17.328Z,102457.06
2023-01-23T04:17:21.250Z,102457.06
2023-01-23T04:19:23.171Z,102461.34
2023-01-23T04:21:29.130Z,102475.94
2023-01-23T04:23:33.210Z,102469.09
2023-01-23T04:25:42.908Z,102476.09
2023-01-23T04:27:58.148Z,102472.53
2023-01-23T04:30:01.015Z,102476.81
2023-01-23T04:32:03.177Z,102474.28
2023-01-23T04:34:16.188Z,102479.34
2023-01-23T04:36:19.077Z,102474.59
2023-01-23T04:38:25.934Z,102469.22
2023-01-23T04:40:27.961Z,102476.09
2023-01-23T04:42:33.807Z,102484.56
2023-01-23T04:44:36.702Z,102482.03
2023-01-23T04:46:50.063Z,102491.28
2023-01-23T04:48:56.093Z,102490.50
2023-01-23T04:50:57.958Z,102489.78
2023-01-23T04:52:59.983Z,102484.72
2023-01-23T04:55:02.065Z,102484.84
2023-01-23T04:57:04.023Z,102481.16
2023-01-23T04:59:06.745Z,102486.34
2023-01-23T05:01:10.715Z,102496.63
2023-01-23T05:03:17.448Z,102489.78
2023-01-23T05:05:21.379Z,102494.84
2023-01-23T05:07:33.448Z,102497.22
2023-01-23T05:09:35.319Z,102494.84
2023-01-23T05:11:37.379Z,102487.38
2023-01-23T05:13:40.339Z,102484.13
2023-01-23T05:15:43.443Z,102484.13
2023-01-23T05:17:45.327Z,102491.56
2023-01-23T05:19:47.247Z,102486.50
2023-01-23T05:21:50.348Z,102477.13
2023-01-23T05:23:53.357Z,102482.91
2023-01-23T05:25:59.262Z,102493.94
2023-01-23T05:28:03.135Z,102503.16
2023-01-23T05:30:10.751Z,102502.28
2023-01-23T05:32:22.882Z,102493.03
2023-01-23T05:34:25.860Z,102499.00
2023-01-23T05:36:27.716Z,102501.41
2023-01-23T05:38:29.737Z,102500.78
2023-01-23T05:40:33.814Z,102507.63
2023-01-23T05:42:41.629Z,102510.03
2023-01-23T05:44:43.539Z,102511.97
2023-01-23T05:46:45.469Z,102508.22
2023-01-23T05:48:54.704Z,102519.56
2023-01-23T05:50:58.610Z,102515.09
2023-01-23T05:53:12.788Z,102517.16
2023-01-23T05:55:26.065Z,102532.94
2023-01-23T05:57:35.416Z,102535.63
2023-01-23T05:59:37.268Z,102539.78
2023-01-23T06:01:45.380Z,102539.91
2023-01-23T06:03:48.176Z,102539.78
2023-01-23T06:06:02.367Z,102545.47
2023-01-23T06:08:20.444Z,102550.81
2023-01-23T06:10:23.398Z,102556.75
2023-01-23T06:12:31.538Z,102552.91
2023-01-23T06:14:33.481Z,102554.38
2023-01-23T06:16:35.604Z,102562.69
2023-01-23T06:18:43.815Z,102555.88
2023-01-23T06:21:19.641Z,102566.00
2023-01-23T06:23:22.550Z,102560.94
2023-01-23T06:25:24.510Z,102572.38
2023-01-23T06:27:30.490Z,102563.91
2023-01-23T06:29:32.637Z,102577.59
2023-01-23T06:31:35.848Z,102574.91
2023-01-23T06:33:43.670Z,102583.56
2023-01-23T06:36:06.164Z,102585.03
2023-01-23T06:38:13.153Z,102592.63
2023-01-23T06:40:15.656Z,102603.78
2023-01-23T06:42:17.717Z,102609.03
2023-01-23T06:44:27.633Z,102607.38
2023-01-23T06:46:36.203Z,102614.97
2023-01-23T06:48:39.289Z,102618.53
2023-01-23T06:50:42.696Z,102626.13
2023-01-23T06:52:44.593Z,102626.13
2023-01-23T06:54:52.378Z,102629.56
2023-01-23T06:56:55.533Z,102623.72
2023-01-23T06:59:03.609Z,102622.84
2023-01-23T07:01:10.671Z,102629.72
2023-01-23T07:03:15.322Z,102627.03
2023-01-23T07:05:18.352Z,102621.97
2023-01-23T07:07:20.410Z,102628.66
2023-01-23T07:09:24.401Z,102632.25
2023-01-23T07:11:26.356Z,102631.50
2023-01-23T07:13:29.712Z,102641.59
2023-01-23T07:15:33.808Z,102636.72
2023-01-23T07:17:36.771Z,102635.06
2023-01-23T07:19:38.800Z,102634.31
2023-01-23T07:21:49.486Z,102641.91
2023-01-23T07:23:53.601Z,102640.13
2023-01-23T07:26:00.613Z,102644.31
2023-01-23T07:28:04.100Z,102642.50
2023-01-23T07:30:06.552Z,102636.56
2023-01-23T07:32:18.612Z,102637.59
2023-01-23T07:34:26.712Z,102633.28
2023-01-23T07:36:29.980Z,102640.13
2023-01-23T07:38:35.292Z,102640.13
2023-01-23T07:40:39.254Z,102634.31
2023-01-23T07:42:43.430Z,102635.94
2023-01-23T07:44:45.393Z,102639.69
2023-01-23T07:46:53.553Z,102636.22
2023-01-23T07:49:02.287Z,102639.38
2023-01-23T07:51:05.954Z,102641.28
2023-01-23T07:53:08.066Z,102639.81
2023-01-23T07:55:16.928Z,102638.75
2023-01-23T07:57:22.316Z,102644.88
2023-01-23T07:59:24.309Z,102652.47
2023-01-23T08:01:26.675Z,102657.41
2023-01-23T08:03:29.301Z,102666.06
2023-01-23T08:05:33.253Z,102659.03
2023-01-23T08:07:36.268Z,102671.53
2023-01-23T08:09:40.615Z,102673.78
2023-01-23T08:11:42.647Z,102665.13
2023-01-23T08:13:48.678Z,102667.19
2023-01-23T08:15:53.569Z,102658.72
2023-01-23T08:17:55.583Z,102664.81
2023-01-23T08:19:57.571Z,102663.94
2023-01-23T08:21:59.552Z,102657.66
2023-01-23T08:24:05.078Z,102663.59
2023-01-23T08:26:11.879Z,102666.75
2023-01-23T08:28:14.796Z,102673.59
2023-01-23T08:30:17.202Z,102674.63
2023-01-23T08:32:19.351Z,102682.66
2023-01-23T08:34:24.210Z,102679.41
2023-01-23T08:36:26.210Z,102685.06
2023-01-23T08:38:29.456Z,102686.25
2023-01-23T08:40:31.830Z,102687.88
2023-01-23T08:42:33.794Z,102689.22
2023-01-23T08:44:35.797Z,102700.13
2023-01-23T08:46:45.369Z,102699.34
2023-01-23T08:48:48.335Z,102703.53
2023-01-23T08:51:02.587Z,102701.72
2023-01-23T08:53:05.112Z,102705.31
2023-01-23T08:55:07.549Z,102706.50
2023-01-23T08:57:09.531Z,102702.16
2023-01-23T08:59:12.128Z,102711.56
2023-01-23T09:01:25.536Z,102710.81
2023-01-23T09:03:28.735Z,102704.69
2023-01-23T09:05:32.580Z,102701.72
2023-01-23T09:07:37.087Z,102707.69
2023-01-23T09:09:39.525Z,102706.19
2023-01-23T09:11:41.834Z,102708.28
2023-01-23T09:13:43.908Z,102701.44
2023-01-23T09:15:50.934Z,102700.56
2023-01-23T09:17:53.840Z,102696.66
2023-01-23T09:19:58.340Z,102698.47
2023-01-23T09:22:00.528Z,102689.53
2023-01-23T09:24:02.566Z,102693.72
2023-01-23T09:26:06.337Z,102698.19
2023-01-23T09:28:08.365Z,102691.31
2023-01-23T09:30:11.898Z,102686.41
2023-01-23T09:32:13.792Z,102686.56
2023-01-23T09:34:17.390Z,102678.81
2023-01-23T09:36:20.588Z,102684.63
2023-01-23T09:38:30.317Z,102684.63
2023-01-23T09:40:44.036Z,102684.47
2023-01-23T09:42:47.231Z,102689.53
2023-01-23T09:44:54.776Z,102683.59
2023-01-23T09:47:10.511Z,102681.81
2023-01-23T09:49:17.532Z,102678.25
2023-01-23T09:51:45.798Z,102681.66
2023-01-23T09:53:47.981Z,102680.78
2023-01-23T09:55:58.240Z,102688.66
2023-01-23T09:58:04.351Z,102687.16
2023-01-23T10:00:27.809Z,102681.50
2023-01-23T10:02:31.028Z,102683.59
2023-01-23T10:04:34.076Z,102685.97
2023-01-23T10:06:48.517Z,102688.34
2023-01-23T10:09:29.780Z,102684.91
2023-01-23T10:12:08.874Z,102690.88
2023-01-23T10:14:52.200Z,102692.84
2023-01-23T10:17:15.102Z,102689.81
2023-01-23T10:19:17.034Z,102686.25
2023-01-23T10:21:32.205Z,102681.78
2023-01-23T10:24:23.728Z,102683.00
2023-01-23T10:26:32.300Z,102679.41
2023-01-23T10:28:39.480Z,102683.00
2023-01-23T10:30:42.557Z,102688.78
2023-01-23T10:32:56.237Z,102689.25
2023-01-23T10:35:12.790Z,102683.44
2023-01-23T10:37:21.987Z,102688.34
2023-01-23T10:39:31.783Z,102687.16
2023-01-23T10:41:37.691Z,102689.81
2023-01-23T10:43:43.468Z,102683.88
2023-01-23T10:45:47.494Z,102678.19
2023-01-23T10:47:54.548Z,102680.56
2023-01-23T10:49:57.229Z,102682.31
2023-01-23T10:52:00.178Z,102684.84
2023-01-23T10:54:31.903Z,102678.91
2023-01-23T10:56:37.987Z,102676.34
2023-01-23T10:58:41.404Z,102682.47
2023-01-23T11:00:47.302Z,102686.78
2023-01-23T11:02:49.235Z,102683.47
2023-01-23T11:04:52.676Z,102686.50
2023-01-23T11:07:14.863Z,102683.19
2023-01-23T11:09:21.362Z,102679.00
2023-01-23T11:11:29.779Z,102679.16
2023-01-23T11:13:31.824Z,102676.63
2023-01-23T11:15:41.060Z,102687.06
2023-01-23T11:17:44.263Z,102688.69
2023-01-23T11:19:49.063Z,102683.78
2023-01-23T11:21:53.203Z,102681.25
2023-01-23T11:24:18.818Z,102681.25
2023-01-23T11:26:34.634Z,102672.16
2023-01-23T11:28:57.816Z,102671.22
2023-01-23T11:31:16.036Z,102677.50
2023-01-23T11:33:27.225Z,102677.16
2023-01-23T11:36:07.107Z,102674.19
2023-01-23T11:38:27.278Z,102666.28
2023-01-23T11:40:33.113Z,102667.00
2023-01-23T11:42:40.396Z,102661.34
2023-01-23T11:44:46.333Z,102658.81
2023-01-23T11:47:16.150Z,102657.22
2023-01-23T11:49:29.216Z,102658.63
2023-01-23T11:52:02.827Z,102652.69
2023-01-23T11:54:31.599Z,102652.97
2023-01-23T11:56:44.136Z,102649.28
2023-01-23T11:59:14.739Z,102648.94
2023-01-23T12:01:52.127Z,102644.75
2023-01-23T12:04:20.808Z,102647.28
2023-01-23T12:06:41.511Z,102652.09
2023-01-23T12:08:56.551Z,102658.66
2023-01-23T12:11:16.665Z,102653.72
2023-01-23T12:13:48.334Z,102648.06
2023-01-23T12:16:02.182Z,102655.66
2023-01-23T12:18:22.912Z,102660.28
2023-01-23T12:20:48.334Z,102658.34
2023-01-23T12:23:18.696Z,102666.22
2023-01-23T12:25:44.093Z,102660.41
2023-01-23T12:27:48.706Z,102662.06
2023-01-23T12:30:29.153Z,102662.94
2023-01-23T12:33:19.210Z,102666.06
2023-01-23T12:35:43.111Z,102668.94
2023-01-23T12:38:11.797Z,102664.31
2023-01-23T12:40:32.391Z,102663.41
2023-01-23T12:42:49.409Z,102666.84
2023-01-23T12:45:12.196Z,102659.69
2023-01-23T12:47:20.277Z,102658.38
2023-01-23T12:49:30.855Z,102663.72
2023-01-23T12:51:39.758Z,102665.19
2023-01-23T12:53:45.580Z,102660.91
2023-01-23T12:56:10.968Z,102666.41
2023-01-23T12:58:16.870Z,102665.34
2023-01-23T13:00:43.216Z,102668.94
2023-01-23T13:03:03.614Z,102675.78
2023-01-23T13:05:55.169Z,102684.16
2023-01-23T13:08:20.105Z,102685.03
2023-01-23T13:11:11.785Z,102689.81
2023-01-23T13:13:14.246Z,102679.34
2023-01-23T13:15:38.848Z,102682.94
2023-01-23T13:17:49.872Z,102686.06
2023-01-23T13:20:10.219Z,102692.78
2023-01-23T13:22:27.703Z,102690.38
2023-01-23T13:24:59.928Z,102696.66
2023-01-23T13:27:35.752Z,102700.81
2023-01-23T13:29:51.003Z,102691.41
2023-01-23T13:32:21.534Z,102704.97
2023-01-23T13:34:23.533Z,102701.56
2023-01-23T13:36:31.109Z,102701.28
2023-01-23T13:38:39.712Z,102693.06
2023-01-23T13:41:02.690Z,102699.03
2023-01-23T13:43:44.460Z,102703.22
2023-01-23T13:45:48.056Z,102705.59
2023-01-23T14:20:46.528Z,102718.13
2023-01-23T14:22:54.098Z,102716.47
2023-01-23T14:24:56.891Z,102717.25
2023-01-23T14:27:09.440Z,102714.56
2023-01-23T14:29:24.313Z,102715.44
2023-01-23T14:31:32.809Z,102717.09
2023-01-23T14:33:45.415Z,102720.50
2023-01-23T14:35:48.222Z,102717.81
2023-01-23T14:37:52.698Z,102713.78
2023-01-23T14:40:11.701Z,102712.75
2023-01-23T14:42:35.579Z,102711.00
2023-01-23T14:44:44.034Z,102711.91
2023-01-23T14:46:46.993Z,102713.09
2023-01-23T14:48:55.386Z,102710.28
2023-01-23T14:51:25.111Z,102722.91
2023-01-23T14:53:28.167Z,102726.94
2023-01-23T14:55:32.024Z,102723.47
2023-01-23T14:57:36.499Z,102725.56
2023-01-23T14:59:41.627Z,102732.41
2023-01-23T15:01:43.660Z,102722.72
2023-01-23T15:03:57.588Z,102726.56
2023-01-23T15:06:03.683Z,102729.09
2023-01-23T15:08:30.886Z,102729.41
2023-01-23T15:10:43.878Z,102738.06
2023-01-23T15:12:56.767Z,102732.69
2023-01-23T15:15:00.480Z,102730.31
2023-01-23T15:17:05.549Z,102728.81
2023-01-23T15:19:24.602Z,102729.09
2023-01-23T15:21:33.640Z,102728.94
2023-01-23T15:23:40.746Z,102736.53
2023-01-23T15:25:46.343Z,102734.50
2023-01-23T15:27:52.883Z,102731.19
2023-01-23T15:30:33.377Z,102727.44
2023-01-23T15:32:41.119Z,102734.31
2023-01-23T15:34:54.401Z,102736.53
2023-01-23T15:37:12.694Z,102740.13
2023-01-23T15:39:23.900Z,102739.50
2023-01-23T15:41:48.041Z,102730.56
2023-01-23T15:43:51.062Z,102744.47
2023-01-23T15:45:54.209Z,102747.00
2023-01-23T15:47:56.160Z,102743.69
2023-01-23T15:50:03.319Z,102743.69
2023-01-23T15:52:25.660Z,102740.13
2023-01-23T15:54:37.841Z,102741.59
2023-01-23T15:56:48.688Z,102743.44
2023-01-23T15:59:02.681Z,102747.94
2023-01-23T16:01:06.089Z,102750.91
2023-01-23T16:03:09.166Z,102751.81
2023-01-23T16:05:12.284Z,102751.53
2023-01-23T16:07:27.213Z,102754.22
2023-01-23T16:09:34.278Z,102748.97
2023-01-23T16:11:42.320Z,102748.81
2023-01-23T16:13:44.953Z,102749.88
2023-01-23T16:15:58.175Z,102750.63
2023-01-23T16:18:04.789Z,102754.66
2023-01-23T16:20:23.951Z,102753.59
2023-01-23T16:22:29.997Z,102758.69
2023-01-23T16:24:39.820Z,102749.16
2023-01-23T16:26:42.504Z,102750.78
2023-01-23T16:28:44.613Z,102756.91
2023-01-23T16:30:55.738Z,102755.09
2023-01-23T16:32:57.987Z,102748.84
2023-01-23T16:35:02.207Z,102754.81
2023-01-23T16:37:04.431Z,102745.41
2023-01-23T16:39:07.271Z,102753.75
2023-01-23T16:41:11.652Z,102753.00
2023-01-23T16:43:14.755Z,102751.53
2023-01-23T16:45:32.806Z,102748.84
2023-01-23T16:47:34.956Z,102750.63
2023-01-23T16:49:52.195Z,102758.84
2023-01-23T16:52:00.812Z,102756.31
2023-01-23T16:54:14.261Z,102754.66
2023-01-23T16:56:53.843Z,102760.16
2023-01-23T16:58:59.306Z,102762.25
2023-01-23T17:01:08.848Z,102765.22
2023-01-23T17:03:24.375Z,102759.84
2023-01-23T17:05:26.399Z,102763.59
2023-01-23T17:07:30.338Z,102768.66
2023-01-23T17:09:32.622Z,102767.59
2023-01-23T17:11:40.396Z,102775.94
2023-01-23T17:13:44.787Z,102777.75
2023-01-23T17:15:54.177Z,102771.75
2023-01-23T17:18:00.710Z,102775.22
2023-01-23T17:20:05.962Z,102773.56
2023-01-23T17:22:24.217Z,102771.47
2023-01-23T17:24:26.768Z,102781.72
2023-01-23T17:26:29.123Z,102775.34
2023-01-23T17:28:31.921Z,102773.06
2023-01-23T17:30:36.516Z,102775.78
2023-01-23T17:32:39.479Z,102775.34
2023-01-23T17:34:49.832Z,102771.75
2023-01-23T17:36:54.561Z,102772.63
2023-01-23T17:39:00.950Z,102772.50
2023-01-23T17:41:06.688Z,102778.63
2023-01-23T17:43:12.070Z,102772.06
2023-01-23T17:45:17.082Z,102781.16
2023-01-23T17:47:19.937Z,102774.31
2023-01-23T17:49:29.871Z,102775.66
2023-01-23T17:51:33.123Z,102772.84
2023-01-23T17:53:36.286Z,102775.97
2023-01-23T17:55:41.452Z,102780.88
2023-01-23T17:57:51.099Z,102786.69
2023-01-23T17:59:55.641Z,102775.69
2023-01-23T18:02:00.989Z,102775.69
2023-01-23T18:04:16.467Z,102781.34
2023-01-23T18:06:19.964Z,102778.94
2023-01-23T18:08:23.653Z,102781.47
2023-01-23T18:10:29.600Z,102773.75
2023-01-23T18:12:52.194Z,102775.38
2023-01-23T18:15:29.510Z,102780.44
2023-01-23T18:18:17.295Z,102778.81
2023-01-23T18:20:23.391Z,102773.75
2023-01-23T18:22:27.176Z,102771.06
2023-01-23T18:24:33.303Z,102775.38
2023-01-23T18:26:54.763Z,102775.38
2023-01-23T18:29:15.523Z,102768.69
2023-01-23T18:31:37.073Z,102780.31
2023-01-23T18:33:56.626Z,102779.69
2023-01-23T18:36:34.102Z,102775.53
2023-01-23T18:38:59.481Z,102778.66
2023-01-23T18:41:25.000Z,102780.00
2023-01-23T18:43:40.668Z,102785.22
2023-01-23T18:46:01.980Z,102787.75
2023-01-23T18:48:23.956Z,102784.63
2023-01-23T18:50:28.121Z,102775.38
2023-01-23T18:52:40.718Z,102778.94
2023-01-23T18:55:03.736Z,102775.66
2023-01-23T18:57:32.877Z,102777.19
2023-01-23T19:00:09.679Z,102778.19
2023-01-23T19:02:23.191Z,102777.31
2023-01-23T19:04:54.350Z,102776.56
2023-01-23T19:06:59.619Z,102776.25
2023-01-23T19:09:02.749Z,102774.63
2023-01-23T19:11:38.294Z,102774.75
2023-01-23T19:14:16.645Z,102780.00
2023-01-23T19:16:33.799Z,102783.41
2023-01-23T19:18:45.600Z,102787.88
2023-01-23T19:21:27.481Z,102793.72
2023-01-23T19:23:46.959Z,102785.06
2023-01-23T19:25:51.212Z,102787.00
2023-01-23T19:27:56.652Z,102785.50
2023-01-23T19:30:01.320Z,102791.00
2023-01-23T19:32:05.750Z,102793.38
2023-01-23T19:34:11.784Z,102793.38
2023-01-23T19:36:15.046Z,102794.44
2023-01-23T19:38:18.288Z,102790.84
2023-01-23T19:40:21.292Z,102790.13
2023-01-23T19:42:23.962Z,102798.63
2023-01-23T19:44:29.110Z,102784.03
2023-01-23T19:46:34.422Z,102787.16
2023-01-23T19:48:37.275Z,102792.38
2023-01-23T19:50:41.492Z,102788.81
2023-01-23T19:52:46.923Z,102794.00
2023-01-23T19:54:51.036Z,102789.41
2023-01-23T19:56:56.193Z,102794.16
2023-01-23T19:59:00.603Z,102802.66
2023-01-23T20:01:04.379Z,102796.69
2023-01-23T20:03:06.651Z,102796.56
2023-01-23T20:05:10.046Z,102800.13
2023-01-23T20:07:12.744Z,102799.81
2023-01-23T20:09:16.228Z,102802.66
2023-01-23T20:11:18.913Z,102796.69
2023-01-23T20:13:21.534Z,102802.78
2023-01-23T20:15:26.669Z,102804.44
2023-01-23T20:17:29.807Z,102805.31
2023-01-23T20:19:34.009Z,102797.59
2023-01-23T20:21:37.951Z,102801.03
2023-01-23T20:23:41.206Z,102798.63
2023-01-23T20:26:00.152Z,102797.28
2023-01-23T20:28:03.802Z,102800.41
2023-01-23T20:30:11.803Z,102797.72
2023-01-23T20:32:14.648Z,102802.78
2023-01-23T20:34:18.809Z,102796.56
2023-01-23T20:36:21.747Z,102805.75
2023-01-23T20:38:25.409Z,102798.03
2023-01-23T20:40:34.124Z,102803.69
2023-01-23T20:42:38.603Z,102803.69
2023-01-23T20:44:42.111Z,102801.00
2023-01-23T20:46:52.067Z,102801.75
2023-01-23T20:49:02.108Z,102801.16
2023-01-23T20:51:12.920Z,102812.19
2023-01-23T20:53:32.341Z,102812.34
2023-01-23T20:55:43.748Z,102813.50
2023-01-23T20:58:07.625Z,102808.44
2023-01-23T21:00:13.696Z,102804.31
2023-01-23T21:02:23.900Z,102806.84
2023-01-23T21:04:31.849Z,102816.22
2023-01-23T21:06:35.047Z,102808.44
2023-01-23T21:08:42.048Z,102811.13
2023-01-23T21:10:46.407Z,102806.84
2023-01-23T21:12:50.596Z,102809.94
2023-01-23T21:15:06.260Z,102813.38
2023-01-23T21:17:15.721Z,102812.63
2023-01-23T21:19:20.342Z,102815.00
2023-01-23T21:21:31.999Z,102810.69
2023-01-23T21:23:37.159Z,102807.28
2023-01-23T21:25:39.352Z,102810.53
2023-01-23T21:27:42.628Z,102804.31
2023-01-23T21:29:44.709Z,102811.44
2023-01-23T21:31:51.769Z,102812.16
2023-01-23T21:34:15.440Z,102812.34
2023-01-23T21:38:43.345Z,102815.00
2023-01-23T21:40:45.498Z,102814.88
2023-01-23T21:42:50.695Z,102814.28
2023-01-23T21:44:57.312Z,102819.19
2023-01-23T21:46:59.613Z,102812.34
2023-01-23T21:49:06.798Z,102813.97
2023-01-23T21:51:18.563Z,102815.59
2023-01-23T21:53:26.189Z,102817.41
2023-01-23T21:55:32.426Z,102812.34
2023-01-23T21:57:34.330Z,102810.53
2023-01-23T21:59:46.812Z,102809.63
2023-01-23T22:02:01.775Z,102803.97
2023-01-23T22:04:06.577Z,102808.75
2023-01-23T22:06:13.657Z,102803.53
2023-01-23T22:08:28.835Z,102805.47
2023-01-23T22:10:43.780Z,102809.63
2023-01-23T22:12:46.807Z,102804.44
2023-01-23T22:14:52.785Z,102813.06
2023-01-23T22:16:59.947Z,102813.66
2023-01-23T22:19:03.710Z,102813.81
2023-01-23T22:21:08.117Z,102817.41
2023-01-23T22:23:13.255Z,102820.66
2023-01-23T22:25:24.109Z,102819.03
2023-01-23T22:27:26.132Z,102821.72
2023-01-23T22:29:34.106Z,102815.59
2023-01-23T22:31:39.054Z,102814.88
2023-01-23T22:33:47.706Z,102819.78
2023-01-23T22:35:50.044Z,102823.06
2023-01-23T22:37:57.850Z,102816.34
2023-01-23T22:40:27.051Z,102826.06
2023-01-23T22:42:33.054Z,102819.19
2023-01-23T22:44:37.838Z,102817.53
2023-01-23T22:46:39.951Z,102817.69
2023-01-23T22:48:48.044Z,102828.59
2023-01-23T22:50:52.054Z,102825.28
2023-01-23T22:53:01.996Z,102819.50
2023-01-23T22:55:16.657Z,102827.81
2023-01-23T22:57:21.903Z,102834.69
2023-01-23T22:59:24.857Z,102828.88
2023-01-23T23:01:30.559Z,102833.06
2023-01-23T23:03:42.967Z,102838.72
2023-01-23T23:05:45.133Z,102830.06
2023-01-23T23:07:47.072Z,102831.13
2023-01-23T23:09:49.084Z,102832.72
2023-01-23T23:11:55.042Z,102834.53
2023-01-23T23:13:58.115Z,102832.88
2023-01-23T23:16:11.575Z,102834.38
2023-01-23T23:18:13.593Z,102839.59
2023-01-23T23:20:15.809Z,102836.91
2023-01-23T23:22:19.824Z,102840.50
2023-01-23T23:24:23.042Z,102842.88
2023-01-23T23:26:31.832Z,102837.78
2023-01-23T23:28:35.257Z,102837.97
2023-01-23T23:30:37.192Z,102834.69
2023-01-23T23:32:40.260Z,102832.88
2023-01-23T23:34:48.335Z,102837.97
2023-01-23T23:36:50.286Z,102836.19
2023-01-23T23:38:52.206Z,102829.63
2023-01-23T23:41:12.383Z,102829.63
2023-01-23T23:43:19.903Z,102825.13
2023-01-23T23:45:32.157Z,102817.53
2023-01-23T23:47:34.090Z,102828.72
2023-01-23T23:49:43.053Z,102826.34
2023-01-23T23:52:03.156Z,102826.34
2023-01-23T23:54:13.852Z,102823.66
2023-01-23T23:56:26.509Z,102826.34
2023-01-23T23:58:40.795Z,102832.28
